Time;durP1;ratioP1;P1;durP2;ratioP2;P2;SDS_P1;SDS_P2;PMS_P1;PMS_P2;Temp;Humidity;BMP_temperature;BMP_pressure;BME280_temperature;BME280_humidity;BME280_pressure;Samples;Min_cycle;Max_cycle;Signal;HPM_P1;HPM_P2
2023/09/17 00:00:04;;;;;;;13.03;10.33;;;19.10;99.90;;;;;;5044915;28;20465;-68
2023/09/17 00:02:32;;;;;;;11.63;10.40;;;19.10;99.90;;;;;;5057028;28;20479;-68
2023/09/17 00:05:00;;;;;;;12.37;10.13;;;19.00;99.90;;;;;;5038722;28;20565;-67
2023/09/17 00:07:28;;;;;;;12.93;10.10;;;19.00;99.90;;;;;;5056687;28;20494;-68
2023/09/17 00:09:57;;;;;;;14.57;9.77;;;19.00;99.90;;;;;;5055314;28;20952;-68
2023/09/17 00:12:27;;;;;;;11.23;8.40;;;19.00;99.90;;;;;;5055966;28;20927;-68
2023/09/17 00:14:54;;;;;;;10.37;9.20;;;19.00;99.90;;;;;;5055462;28;20419;-68
2023/09/17 00:17:22;;;;;;;12.00;8.90;;;19.00;99.90;;;;;;5055307;28;20517;-67
2023/09/17 00:19:50;;;;;;;11.60;9.53;;;19.00;99.90;;;;;;5055531;28;20408;-68
2023/09/17 00:22:17;;;;;;;14.70;8.87;;;19.00;99.90;;;;;;5055373;28;20886;-67
2023/09/17 00:24:44;;;;;;;12.67;10.07;;;19.00;99.90;;;;;;5055672;28;20499;-67
2023/09/17 00:27:13;;;;;;;12.27;8.90;;;19.00;99.90;;;;;;5055093;28;21138;-68
2023/09/17 00:29:40;;;;;;;10.13;9.13;;;18.90;99.90;;;;;;5055755;28;20877;-69
2023/09/17 00:32:09;;;;;;;12.43;8.73;;;18.90;99.90;;;;;;5054954;28;20463;-69
2023/09/17 00:34:36;;;;;;;12.70;8.37;;;18.90;99.90;;;;;;5055288;28;20420;-68
2023/09/17 00:37:03;;;;;;;10.37;9.03;;;18.90;99.90;;;;;;5054615;28;20502;-67
2023/09/17 00:39:33;;;;;;;11.70;9.17;;;18.90;99.90;;;;;;5055000;28;20474;-68
2023/09/17 00:42:03;;;;;;;10.83;8.90;;;18.90;99.90;;;;;;5054672;28;20451;-70
2023/09/17 00:44:32;;;;;;;10.17;9.07;;;18.80;99.90;;;;;;5055450;28;20906;-68
2023/09/17 00:47:00;;;;;;;13.93;9.20;;;18.70;99.90;;;;;;5055145;28;20968;-67
2023/09/17 00:49:28;;;;;;;12.60;8.90;;;18.70;99.90;;;;;;5054816;28;20521;-68
2023/09/17 00:51:56;;;;;;;12.40;9.27;;;18.60;99.90;;;;;;5055199;28;20428;-68
2023/09/17 00:54:26;;;;;;;10.73;9.47;;;18.60;99.90;;;;;;5055247;28;20478;-68
2023/09/17 00:56:53;;;;;;;13.93;9.40;;;18.60;99.90;;;;;;5041593;28;20476;-68
2023/09/17 00:59:21;;;;;;;10.47;8.93;;;18.60;99.90;;;;;;5035626;28;20472;-68
2023/09/17 01:01:51;;;;;;;10.47;8.63;;;18.60;99.90;;;;;;5046713;28;20471;-68
2023/09/17 01:04:19;;;;;;;11.30;8.97;;;18.50;99.90;;;;;;5054357;28;20529;-68
2023/09/17 01:06:49;;;;;;;17.73;10.20;;;18.50;99.90;;;;;;5035104;28;20524;-68
2023/09/17 01:09:18;;;;;;;12.10;9.07;;;18.50;99.90;;;;;;5054965;28;20438;-68
2023/09/17 01:11:46;;;;;;;11.60;8.77;;;18.40;99.90;;;;;;5051202;28;20530;-68
2023/09/17 01:14:15;;;;;;;9.90;8.30;;;18.40;99.90;;;;;;5035460;28;20495;-67
2023/09/17 01:16:46;;;;;;;11.13;8.83;;;18.40;99.90;;;;;;5034912;28;20888;-66
2023/09/17 01:19:21;;;;;;;12.10;9.97;;;18.30;99.90;;;;;;5034449;28;20487;-68
2023/09/17 01:22:03;;;;;;;13.37;9.90;;;18.30;99.90;;;;;;5034888;28;20921;-67
2023/09/17 01:24:40;;;;;;;11.43;9.33;;;18.30;99.90;;;;;;5035041;28;20832;-67
2023/09/17 01:27:12;;;;;;;9.97;8.70;;;18.30;99.90;;;;;;5052503;28;20533;-66
2023/09/17 01:29:43;;;;;;;10.40;9.20;;;18.30;99.90;;;;;;5054107;28;20518;-66
2023/09/17 01:32:11;;;;;;;10.67;9.20;;;18.20;99.90;;;;;;5035399;28;20518;-68
2023/09/17 01:34:43;;;;;;;11.37;8.63;;;18.20;99.90;;;;;;5035051;28;20464;-68
2023/09/17 01:37:14;;;;;;;9.40;8.00;;;18.20;99.90;;;;;;5045960;28;20560;-67
2023/09/17 01:39:46;;;;;;;12.77;9.00;;;18.20;99.90;;;;;;5054431;28;20439;-66
2023/09/17 01:42:16;;;;;;;11.87;8.60;;;18.20;99.90;;;;;;5054414;28;20958;-67
2023/09/17 01:44:45;;;;;;;9.43;8.20;;;18.20;99.90;;;;;;5054145;28;20490;-68
2023/09/17 01:47:13;;;;;;;12.63;10.23;;;18.20;99.90;;;;;;5054014;28;20499;-67
2023/09/17 01:49:41;;;;;;;11.10;9.23;;;18.10;99.90;;;;;;5054124;28;20463;-68
2023/09/17 01:52:10;;;;;;;12.50;10.50;;;18.10;99.90;;;;;;5053601;28;20459;-68
2023/09/17 01:54:37;;;;;;;10.83;8.50;;;18.10;99.90;;;;;;5053988;28;20469;-68
2023/09/17 01:57:05;;;;;;;10.17;9.10;;;18.10;99.90;;;;;;5053698;28;20495;-67
2023/09/17 01:59:36;;;;;;;10.67;8.77;;;18.10;99.90;;;;;;5054289;28;20475;-67
2023/09/17 02:02:03;;;;;;;11.57;8.60;;;18.10;99.90;;;;;;5055048;28;20473;-68
2023/09/17 02:04:30;;;;;;;9.80;8.80;;;18.10;99.90;;;;;;5042764;28;20472;-67
2023/09/17 02:06:58;;;;;;;13.73;9.57;;;18.10;99.90;;;;;;5035635;28;20491;-69
2023/09/17 02:09:25;;;;;;;9.77;8.70;;;18.10;99.90;;;;;;5036235;28;20476;-69
2023/09/17 02:11:55;;;;;;;10.00;8.10;;;18.10;99.90;;;;;;5033928;28;20933;-69
2023/09/17 02:14:22;;;;;;;8.80;7.43;;;18.00;99.90;;;;;;5043159;28;20471;-67
2023/09/17 02:16:52;;;;;;;10.30;8.63;;;18.00;99.90;;;;;;5053198;28;20487;-69
2023/09/17 02:19:20;;;;;;;10.93;8.83;;;17.90;99.90;;;;;;5053422;28;20808;-68
2023/09/17 02:21:48;;;;;;;11.60;8.63;;;17.90;99.90;;;;;;5052941;28;20541;-67
2023/09/17 02:24:18;;;;;;;12.53;9.20;;;17.90;99.90;;;;;;5053586;28;20468;-68
2023/09/17 02:26:46;;;;;;;10.10;8.50;;;17.90;99.90;;;;;;5052562;28;20482;-67
2023/09/17 02:29:13;;;;;;;9.50;8.40;;;17.90;99.90;;;;;;5054695;28;20458;-67
2023/09/17 02:31:41;;;;;;;10.20;8.90;;;17.80;99.90;;;;;;5053608;28;20431;-67
2023/09/17 02:34:10;;;;;;;11.87;9.70;;;17.80;99.90;;;;;;5053386;28;20423;-68
2023/09/17 02:36:40;;;;;;;10.37;8.73;;;17.80;99.90;;;;;;5052825;28;20952;-68
2023/09/17 02:39:08;;;;;;;10.87;9.77;;;17.70;99.90;;;;;;5040309;28;20479;-69
2023/09/17 02:41:35;;;;;;;10.70;9.10;;;17.70;99.90;;;;;;5033527;28;20511;-68
2023/09/17 02:44:03;;;;;;;11.93;9.47;;;17.70;99.90;;;;;;5045342;28;20463;-68
2023/09/17 02:46:30;;;;;;;11.60;9.63;;;17.60;99.90;;;;;;5052530;28;20524;-69
2023/09/17 02:48:57;;;;;;;11.60;9.30;;;17.60;99.90;;;;;;5052811;28;20439;-68
2023/09/17 02:51:27;;;;;;;10.93;9.27;;;17.60;99.90;;;;;;5052852;28;20471;-68
2023/09/17 02:53:53;;;;;;;12.77;9.53;;;17.50;99.90;;;;;;5052946;28;21172;-68
2023/09/17 02:56:21;;;;;;;20.40;9.00;;;17.50;99.90;;;;;;5053893;28;20472;-68
2023/09/17 02:58:48;;;;;;;13.03;8.20;;;17.50;99.90;;;;;;5052877;28;20431;-68
2023/09/17 03:01:17;;;;;;;10.70;8.33;;;17.50;99.90;;;;;;5052858;28;20836;-68
2023/09/17 03:03:45;;;;;;;12.37;9.23;;;17.50;99.90;;;;;;5043184;28;20624;-68
2023/09/17 03:06:12;;;;;;;16.37;9.60;;;17.50;99.90;;;;;;5032174;28;20496;-68
2023/09/17 03:08:44;;;;;;;13.10;9.50;;;17.40;99.90;;;;;;5018798;28;21001;-68
2023/09/17 03:11:13;;;;;;;10.93;9.10;;;17.40;99.90;;;;;;5052892;28;20467;-68
2023/09/17 03:13:44;;;;;;;12.20;10.27;;;17.50;99.90;;;;;;5052807;28;20443;-68
2023/09/17 03:16:15;;;;;;;11.63;8.90;;;17.50;99.90;;;;;;5032661;28;20464;-68
2023/09/17 03:18:42;;;;;;;12.80;9.40;;;17.40;99.90;;;;;;5032691;28;20494;-68
2023/09/17 03:21:11;;;;;;;15.53;10.37;;;17.50;99.90;;;;;;5033648;28;20563;-67
2023/09/17 03:23:39;;;;;;;10.57;9.30;;;17.50;99.90;;;;;;5033123;28;20460;-67
2023/09/17 03:26:10;;;;;;;13.27;8.83;;;17.50;99.90;;;;;;5022799;28;20999;-67
2023/09/17 03:28:37;;;;;;;11.63;9.77;;;17.50;99.90;;;;;;5035087;28;20801;-68
2023/09/17 03:31:07;;;;;;;11.23;9.10;;;17.50;99.90;;;;;;5051302;28;20514;-68
2023/09/17 03:33:34;;;;;;;11.47;9.23;;;17.50;99.90;;;;;;5036881;28;20424;-68
2023/09/17 03:36:03;;;;;;;11.97;9.30;;;17.50;99.90;;;;;;5019687;28;20831;-68
2023/09/17 03:38:33;;;;;;;11.43;9.63;;;17.50;99.90;;;;;;5036435;28;20467;-67
2023/09/17 03:41:01;;;;;;;14.47;9.20;;;17.50;99.90;;;;;;5036758;28;20479;-67
2023/09/17 03:43:29;;;;;;;12.27;9.90;;;17.40;99.90;;;;;;5036566;28;20483;-68
2023/09/17 03:45:56;;;;;;;10.73;9.60;;;17.40;99.90;;;;;;5036403;28;20495;-67
2023/09/17 03:48:23;;;;;;;11.33;9.40;;;17.40;99.90;;;;;;5018894;28;20527;-68
2023/09/17 03:50:50;;;;;;;9.40;8.40;;;17.40;99.90;;;;;;5037122;28;20475;-68
2023/09/17 03:53:19;;;;;;;12.07;9.47;;;17.40;99.90;;;;;;5036076;28;20443;-69
2023/09/17 03:55:46;;;;;;;11.10;9.00;;;17.40;99.90;;;;;;5036171;28;20862;-68
2023/09/17 03:58:15;;;;;;;12.20;8.87;;;17.40;99.90;;;;;;5035902;28;20543;-68
2023/09/17 04:00:44;;;;;;;11.70;9.20;;;17.40;99.90;;;;;;5036138;28;20432;-68
2023/09/17 04:03:16;;;;;;;10.27;8.30;;;17.40;99.90;;;;;;5035704;28;20555;-68
2023/09/17 04:05:45;;;;;;;15.50;10.10;;;17.40;99.90;;;;;;5038965;28;20528;-69
2023/09/17 04:08:15;;;;;;;14.80;9.90;;;17.40;99.90;;;;;;5055874;28;20478;-69
2023/09/17 04:10:43;;;;;;;14.13;10.27;;;17.40;99.90;;;;;;5055808;28;20447;-69
2023/09/17 04:13:14;;;;;;;9.77;8.43;;;17.40;99.90;;;;;;5037632;28;20526;-68
2023/09/17 04:15:43;;;;;;;14.33;9.03;;;17.40;99.90;;;;;;5055655;28;20439;-68
2023/09/17 04:18:11;;;;;;;12.97;9.67;;;17.40;99.90;;;;;;5055136;28;20478;-68
2023/09/17 04:20:38;;;;;;;12.57;8.80;;;17.30;99.90;;;;;;5055717;28;20447;-68
2023/09/17 04:23:06;;;;;;;10.87;9.70;;;17.30;99.90;;;;;;5055673;28;20470;-68
2023/09/17 04:25:35;;;;;;;10.67;9.50;;;17.30;99.90;;;;;;5055683;28;20828;-69
2023/09/17 04:28:02;;;;;;;13.47;8.97;;;17.30;99.90;;;;;;5055574;28;20533;-67
2023/09/17 04:30:31;;;;;;;10.50;8.50;;;17.30;99.90;;;;;;5055459;28;20947;-68
2023/09/17 04:32:58;;;;;;;12.50;9.40;;;17.30;99.90;;;;;;5055683;28;20828;-67
2023/09/17 04:35:25;;;;;;;11.60;8.20;;;17.20;99.90;;;;;;5055355;28;20455;-68
2023/09/17 04:37:52;;;;;;;10.03;9.00;;;17.20;99.90;;;;;;5055666;28;20542;-68
2023/09/17 04:40:19;;;;;;;11.30;9.70;;;17.20;99.90;;;;;;5054838;28;20446;-67
2023/09/17 04:42:47;;;;;;;9.00;8.10;;;17.10;99.90;;;;;;5055560;28;20431;-66
2023/09/17 04:45:33;;;;;;;11.47;9.37;;;17.10;99.90;;;;;;5054710;28;20533;-68
2023/09/17 04:48:02;;;;;;;11.13;9.90;;;17.10;99.90;;;;;;5034973;28;20518;-68
2023/09/17 04:50:31;;;;;;;11.37;9.23;;;17.10;99.90;;;;;;5035389;28;20487;-68
2023/09/17 04:52:58;;;;;;;11.73;9.20;;;17.10;99.90;;;;;;5035175;28;20474;-68
2023/09/17 04:55:25;;;;;;;15.93;9.47;;;17.10;99.90;;;;;;5035153;28;20435;-68
2023/09/17 04:57:55;;;;;;;10.73;9.07;;;17.10;99.90;;;;;;5035717;28;20972;-68
2023/09/17 05:00:22;;;;;;;11.13;9.93;;;17.10;99.90;;;;;;5036831;28;20840;-68
2023/09/17 05:02:50;;;;;;;16.30;10.47;;;17.10;99.90;;;;;;5036025;28;20476;-68
2023/09/17 05:05:19;;;;;;;10.07;9.07;;;17.10;99.90;;;;;;5033981;28;20919;-68
2023/09/17 05:07:48;;;;;;;14.87;9.10;;;17.20;99.90;;;;;;5035089;28;20878;-67
2023/09/17 05:10:16;;;;;;;11.37;10.27;;;17.10;99.90;;;;;;5044316;28;20516;-68
2023/09/17 05:12:43;;;;;;;12.93;8.90;;;17.10;99.90;;;;;;5055161;28;20498;-67
2023/09/17 05:15:12;;;;;;;10.03;8.83;;;17.20;99.90;;;;;;5054723;28;20507;-68
2023/09/17 05:17:41;;;;;;;10.63;8.83;;;17.20;99.90;;;;;;5054803;28;20471;-67
2023/09/17 05:20:12;;;;;;;9.97;8.70;;;17.20;99.90;;;;;;5036008;28;20491;-67
2023/09/17 05:22:39;;;;;;;11.40;10.20;;;17.20;99.90;;;;;;5034651;28;20460;-68
2023/09/17 05:25:14;;;;;;;12.00;9.27;;;17.30;99.90;;;;;;5034114;28;20475;-67
2023/09/17 05:27:42;;;;;;;11.43;9.37;;;17.30;99.90;;;;;;5034836;28;20879;-67
2023/09/17 05:30:12;;;;;;;11.33;10.20;;;17.40;99.90;;;;;;5034418;28;20440;-68
2023/09/17 05:32:39;;;;;;;11.40;8.57;;;17.40;99.90;;;;;;5034817;28;20961;-68
2023/09/17 05:35:07;;;;;;;14.83;11.03;;;17.50;99.90;;;;;;5034962;28;20446;-68
2023/09/17 05:37:37;;;;;;;9.60;8.50;;;17.50;99.90;;;;;;5034493;28;20811;-68
2023/09/17 05:40:06;;;;;;;10.97;9.17;;;17.50;99.90;;;;;;5017625;28;20959;-68
2023/09/17 05:42:34;;;;;;;12.63;9.80;;;17.60;99.90;;;;;;5017434;28;20482;-69
2023/09/17 05:45:04;;;;;;;11.40;9.70;;;17.60;99.90;;;;;;5034449;28;21091;-67
2023/09/17 05:47:34;;;;;;;10.20;9.13;;;17.70;99.90;;;;;;5034359;28;20464;-69
2023/09/17 05:50:00;;;;;;;12.87;11.27;;;17.80;99.90;;;;;;5033372;28;20870;-69
2023/09/17 05:52:29;;;;;;;9.80;8.63;;;17.70;99.90;;;;;;5033777;28;20456;-68
2023/09/17 05:54:58;;;;;;;11.43;9.90;;;17.70;99.90;;;;;;5042961;28;20524;-68
2023/09/17 05:57:25;;;;;;;11.30;8.90;;;17.80;99.90;;;;;;5054121;28;20921;-68
2023/09/17 05:59:53;;;;;;;11.47;10.27;;;17.80;99.90;;;;;;5054304;28;20835;-68
2023/09/17 06:02:21;;;;;;;14.20;9.80;;;17.90;99.90;;;;;;5033790;28;20479;-68
2023/09/17 06:04:52;;;;;;;11.23;9.83;;;17.90;99.90;;;;;;5033921;28;20461;-68
2023/09/17 06:07:21;;;;;;;9.70;8.70;;;17.90;99.90;;;;;;5034092;28;20841;-68
2023/09/17 06:09:47;;;;;;;12.40;10.50;;;17.90;99.90;;;;;;5034130;28;20452;-68
2023/09/17 06:12:18;;;;;;;13.67;9.73;;;17.90;99.90;;;;;;5034006;28;20937;-68
2023/09/17 06:14:46;;;;;;;11.90;9.27;;;18.00;99.90;;;;;;5048747;28;20486;-69
2023/09/17 06:17:13;;;;;;;13.70;10.40;;;18.00;99.90;;;;;;5053601;28;20491;-69
2023/09/17 06:19:40;;;;;;;11.93;10.53;;;18.10;99.90;;;;;;5053541;28;20516;-69
2023/09/17 06:22:08;;;;;;;11.57;10.27;;;18.00;99.90;;;;;;5053377;28;20522;-69
2023/09/17 06:24:37;;;;;;;12.13;10.37;;;18.00;99.90;;;;;;5035353;28;20467;-68
2023/09/17 06:27:05;;;;;;;12.43;9.70;;;18.00;99.90;;;;;;5053797;28;20459;-68
2023/09/17 06:29:33;;;;;;;13.60;10.70;;;18.10;99.90;;;;;;5054115;28;20485;-70
2023/09/17 06:32:01;;;;;;;12.67;9.97;;;18.20;99.90;;;;;;5053762;28;20459;-69
2023/09/17 06:34:30;;;;;;;16.40;11.47;;;18.20;99.90;;;;;;5053478;28;20564;-70
2023/09/17 06:36:59;;;;;;;12.30;10.23;;;18.30;99.90;;;;;;5053703;28;20482;-69
2023/09/17 06:39:27;;;;;;;13.73;10.50;;;18.30;99.90;;;;;;5053699;28;20473;-68
2023/09/17 06:42:01;;;;;;;12.80;10.47;;;18.40;99.90;;;;;;5052601;28;20501;-69
2023/09/17 06:44:28;;;;;;;13.23;10.97;;;18.50;99.90;;;;;;5053870;28;20459;-68
2023/09/17 06:46:56;;;;;;;11.67;9.43;;;18.50;99.90;;;;;;5055452;28;20537;-67
2023/09/17 06:49:24;;;;;;;11.63;10.50;;;18.60;99.90;;;;;;5051925;28;20428;-69
2023/09/17 06:51:55;;;;;;;11.50;10.00;;;18.70;99.90;;;;;;5034039;28;20478;-70
2023/09/17 06:54:23;;;;;;;12.03;9.37;;;18.70;99.90;;;;;;5034153;28;20515;-68
2023/09/17 06:56:52;;;;;;;13.87;10.77;;;18.80;99.90;;;;;;5034045;28;20821;-68
2023/09/17 06:59:20;;;;;;;12.83;11.33;;;18.90;99.90;;;;;;5041202;28;20460;-69
2023/09/17 07:01:47;;;;;;;13.90;10.80;;;19.00;99.90;;;;;;5052733;28;20909;-69
2023/09/17 07:04:17;;;;;;;11.83;10.50;;;19.00;99.90;;;;;;5052545;28;20533;-67
2023/09/17 07:06:45;;;;;;;19.53;11.03;;;19.20;99.90;;;;;;5052736;28;20479;-69
2023/09/17 07:09:12;;;;;;;14.50;10.50;;;19.20;99.90;;;;;;5033690;28;20483;-68
2023/09/17 07:11:41;;;;;;;15.67;12.10;;;19.40;99.90;;;;;;5033145;28;20428;-69
2023/09/17 07:14:10;;;;;;;17.70;11.73;;;19.40;99.90;;;;;;5049556;28;20567;-69
2023/09/17 07:16:40;;;;;;;13.07;11.63;;;19.50;99.90;;;;;;5053199;28;20811;-68
2023/09/17 07:19:07;;;;;;;12.70;10.60;;;19.60;99.90;;;;;;5050637;28;20993;-69
2023/09/17 07:21:36;;;;;;;11.80;9.80;;;19.70;99.90;;;;;;5033985;28;20456;-69
2023/09/17 07:24:03;;;;;;;15.13;10.67;;;19.80;99.90;;;;;;5033121;28;20515;-68
2023/09/17 07:26:30;;;;;;;10.97;9.33;;;19.90;99.90;;;;;;5034820;28;20493;-68
2023/09/17 07:28:58;;;;;;;12.73;10.73;;;20.00;99.90;;;;;;5062357;28;20488;-67
2023/09/17 07:31:25;;;;;;;19.73;12.50;;;20.10;99.90;;;;;;5048836;28;20496;-68
2023/09/17 07:33:52;;;;;;;10.83;9.73;;;20.20;99.90;;;;;;5044927;28;20424;-67
2023/09/17 07:36:19;;;;;;;10.40;9.30;;;20.30;99.90;;;;;;5052857;28;20493;-69
2023/09/17 07:38:47;;;;;;;14.80;11.27;;;20.40;99.90;;;;;;5064329;28;20981;-68
2023/09/17 07:41:15;;;;;;;17.10;10.97;;;20.50;99.90;;;;;;5056833;28;20452;-68
2023/09/17 07:43:44;;;;;;;12.70;11.40;;;20.60;99.90;;;;;;5037676;28;21024;-68
2023/09/17 07:46:13;;;;;;;16.33;10.60;;;20.70;99.90;;;;;;5040270;28;20487;-67
2023/09/17 07:48:46;;;;;;;14.50;11.87;;;20.80;99.90;;;;;;5041668;28;20983;-68
2023/09/17 07:51:13;;;;;;;13.80;10.03;;;20.90;99.90;;;;;;5041672;28;20433;-68
2023/09/17 07:53:40;;;;;;;11.50;9.47;;;21.10;99.90;;;;;;5043939;28;20432;-66
2023/09/17 07:56:09;;;;;;;33.47;22.70;;;21.20;99.90;;;;;;5043131;28;20452;-67
2023/09/17 07:58:36;;;;;;;26.30;17.83;;;21.30;99.90;;;;;;5043985;28;20432;-68
2023/09/17 08:01:11;;;;;;;15.93;12.60;;;21.30;99.90;;;;;;5037461;28;20482;-67
2023/09/17 08:03:38;;;;;;;12.43;11.13;;;21.40;99.90;;;;;;5034365;28;20463;-69
2023/09/17 08:06:06;;;;;;;16.43;11.20;;;21.50;99.90;;;;;;5017135;28;20475;-67
2023/09/17 08:08:34;;;;;;;15.90;10.13;;;21.70;99.90;;;;;;5034649;28;20528;-68
2023/09/17 08:11:01;;;;;;;12.90;10.77;;;21.80;99.90;;;;;;5032954;28;20551;-67
2023/09/17 08:13:29;;;;;;;11.87;10.43;;;22.00;99.90;;;;;;5032719;28;20425;-68
2023/09/17 08:15:57;;;;;;;17.93;10.47;;;22.50;99.90;;;;;;5052507;28;20870;-68
2023/09/17 08:18:26;;;;;;;16.53;10.03;;;23.60;99.90;;;;;;5055614;28;20537;-68
2023/09/17 08:20:53;;;;;;;10.40;8.50;;;25.20;99.90;;;;;;5055885;28;20531;-68
2023/09/17 08:23:20;;;;;;;11.73;8.53;;;27.10;99.90;;;;;;5055813;28;20996;-68
2023/09/17 08:25:48;;;;;;;10.40;9.10;;;28.80;99.90;;;;;;5055270;28;21029;-68
2023/09/17 08:28:15;;;;;;;12.70;9.83;;;30.20;99.90;;;;;;5056032;28;20438;-68
2023/09/17 08:30:46;;;;;;;9.53;8.27;;;31.20;99.90;;;;;;5055777;28;20412;-69
2023/09/17 08:33:15;;;;;;;9.37;8.33;;;32.40;97.10;;;;;;5055338;28;20800;-66
2023/09/17 08:35:42;;;;;;;8.83;8.03;;;33.40;91.80;;;;;;5035566;28;20468;-69
2023/09/17 08:38:10;;;;;;;9.23;8.23;;;34.00;88.20;;;;;;5035500;28;20491;-68
2023/09/17 08:40:39;;;;;;;9.13;8.10;;;34.80;80.90;;;;;;5035549;28;20523;-68
2023/09/17 08:43:06;;;;;;;8.50;7.80;;;35.10;76.50;;;;;;5035540;28;20428;-68
2023/09/17 08:45:34;;;;;;;9.33;8.47;;;35.30;73.40;;;;;;5041199;28;20443;-68
2023/09/17 08:48:03;;;;;;;10.07;9.07;;;35.10;71.80;;;;;;5054885;28;20546;-68
2023/09/17 08:50:32;;;;;;;21.47;19.37;;;35.10;71.50;;;;;;5055134;28;20535;-68
2023/09/17 08:53:03;;;;;;;10.43;9.53;;;35.10;69.20;;;;;;5055188;28;20436;-68
2023/09/17 08:55:31;;;;;;;11.80;9.87;;;35.00;69.10;;;;;;5055242;28;20424;-67
2023/09/17 08:58:11;;;;;;;9.93;9.13;;;35.00;68.20;;;;;;5055293;28;20819;-68
2023/09/17 09:00:45;;;;;;;9.43;8.17;;;34.70;68.70;;;;;;5055333;28;20471;-68
2023/09/17 09:03:16;;;;;;;11.97;8.70;;;34.50;68.80;;;;;;5055197;28;20450;-67
2023/09/17 09:05:47;;;;;;;9.50;7.80;;;34.20;70.10;;;;;;5054717;28;20854;-68
2023/09/17 09:08:15;;;;;;;8.83;8.00;;;33.80;70.60;;;;;;5054847;28;20459;-68
2023/09/17 09:10:42;;;;;;;9.93;8.37;;;33.30;72.10;;;;;;5054758;28;20511;-68
2023/09/17 09:13:10;;;;;;;9.60;8.70;;;33.20;73.30;;;;;;5054538;28;20988;-68
2023/09/17 09:15:37;;;;;;;9.57;8.10;;;33.10;73.10;;;;;;5053615;28;20451;-67
2023/09/17 09:18:06;;;;;;;9.30;7.90;;;33.00;74.00;;;;;;5054257;28;20455;-67
2023/09/17 09:20:34;;;;;;;15.30;13.70;;;33.10;73.80;;;;;;5054727;28;20485;-69
2023/09/17 09:23:05;;;;;;;12.40;11.17;;;33.00;72.70;;;;;;5054633;28;20432;-68
2023/09/17 09:25:32;;;;;;;9.40;8.40;;;32.90;73.90;;;;;;5054976;28;20431;-67
2023/09/17 09:28:00;;;;;;;7.97;7.17;;;32.20;75.30;;;;;;5052993;28;20887;-67
2023/09/17 09:30:29;;;;;;;8.33;7.50;;;31.40;75.70;;;;;;5054570;28;20416;-68
2023/09/17 09:32:58;;;;;;;9.27;8.33;;;30.80;79.50;;;;;;5054501;28;20522;-67
2023/09/17 09:35:27;;;;;;;8.20;7.23;;;30.70;80.50;;;;;;5054165;28;20424;-68
2023/09/17 09:37:57;;;;;;;8.53;6.40;;;31.20;80.90;;;;;;5054375;28;20979;-66
2023/09/17 09:40:25;;;;;;;8.43;7.20;;;32.10;77.40;;;;;;5054053;28;20446;-69
2023/09/17 09:42:54;;;;;;;10.60;6.53;;;33.00;75.00;;;;;;5053752;28;20451;-68
2023/09/17 09:45:21;;;;;;;8.80;7.87;;;33.80;72.20;;;;;;5054196;28;20435;-68
2023/09/17 09:47:49;;;;;;;8.83;6.27;;;34.50;70.20;;;;;;5054826;28;20581;-68
2023/09/17 09:50:25;;;;;;;8.30;7.50;;;35.00;67.30;;;;;;5041453;28;20526;-69
2023/09/17 09:52:53;;;;;;;6.97;6.27;;;35.40;66.40;;;;;;5034721;28;20968;-68
2023/09/17 09:55:27;;;;;;;6.10;5.53;;;35.50;64.80;;;;;;5034387;28;20833;-68
2023/09/17 09:57:54;;;;;;;7.67;6.97;;;35.60;64.50;;;;;;5033750;28;20464;-68
2023/09/17 10:00:29;;;;;;;9.47;8.57;;;35.70;63.20;;;;;;5043755;28;20866;-68
2023/09/17 10:02:56;;;;;;;9.40;8.40;;;35.70;64.30;;;;;;5053565;28;20473;-68
2023/09/17 10:05:33;;;;;;;11.47;10.17;;;35.60;64.50;;;;;;5054137;28;20475;-67
2023/09/17 10:08:04;;;;;;;11.37;10.20;;;35.50;64.00;;;;;;5053998;28;20552;-68
2023/09/17 10:10:33;;;;;;;10.13;8.80;;;35.60;64.40;;;;;;5054001;28;20687;-68
2023/09/17 10:13:03;;;;;;;12.47;9.80;;;35.50;63.60;;;;;;5053517;28;20447;-68
2023/09/17 10:15:31;;;;;;;11.77;10.07;;;35.50;64.40;;;;;;5053536;28;20471;-68
2023/09/17 10:17:59;;;;;;;8.33;7.40;;;35.50;64.40;;;;;;5035588;28;20923;-67
2023/09/17 10:20:26;;;;;;;7.87;7.07;;;35.50;63.80;;;;;;5053823;28;20497;-68
2023/09/17 10:22:55;;;;;;;7.37;6.77;;;35.30;61.40;;;;;;5052998;28;20525;-68
2023/09/17 10:25:23;;;;;;;10.17;9.07;;;35.10;61.90;;;;;;5053752;28;20515;-68
2023/09/17 10:27:53;;;;;;;6.87;6.27;;;34.90;63.30;;;;;;5053029;28;21054;-69
2023/09/17 10:30:20;;;;;;;8.03;7.33;;;34.90;61.60;;;;;;5053302;28;20466;-68
2023/09/17 10:32:48;;;;;;;6.33;5.83;;;34.80;62.70;;;;;;5053542;28;20470;-68
2023/09/17 10:35:16;;;;;;;7.50;6.67;;;34.60;62.60;;;;;;5040481;28;20452;-68
2023/09/17 10:37:46;;;;;;;6.90;6.30;;;34.40;64.50;;;;;;5032861;28;20483;-69
2023/09/17 10:40:14;;;;;;;7.63;6.20;;;34.30;64.10;;;;;;5033457;28;20436;-68
2023/09/17 10:42:41;;;;;;;6.50;6.00;;;34.10;63.80;;;;;;5015479;28;20480;-68
2023/09/17 10:45:11;;;;;;;6.70;6.10;;;33.80;64.10;;;;;;5033939;28;20495;-69
2023/09/17 10:47:41;;;;;;;6.77;5.80;;;33.60;65.70;;;;;;5015483;28;20534;-68
2023/09/17 10:50:12;;;;;;;7.77;7.17;;;33.30;64.90;;;;;;5033574;28;20447;-68
2023/09/17 10:56:06;;;;;;;7.13;6.23;;;32.80;67.90;;;;;;5053452;28;20383;-68
2023/09/17 11:05:32;;;;;;;6.23;5.63;;;31.80;66.70;;;;;;5053549;28;20367;-69
2023/09/17 11:08:23;;;;;;;7.30;5.77;;;31.50;69.10;;;;;;5053854;28;20483;-69
2023/09/17 11:10:51;;;;;;;5.30;4.80;;;31.30;69.30;;;;;;5053907;28;20459;-69
2023/09/17 11:13:20;;;;;;;7.80;5.93;;;31.10;68.20;;;;;;5052881;28;20927;-69
2023/09/17 11:15:49;;;;;;;5.73;5.13;;;31.00;68.30;;;;;;5052839;28;20420;-68
2023/09/17 11:18:18;;;;;;;6.77;5.83;;;30.70;69.20;;;;;;5049084;28;20586;-68
2023/09/17 11:21:08;;;;;;;7.70;5.77;;;30.50;71.60;;;;;;5032856;28;20464;-68
2023/09/17 11:23:39;;;;;;;9.00;5.63;;;30.20;72.50;;;;;;5028423;28;20515;-68
2023/09/17 11:26:07;;;;;;;6.00;5.50;;;30.10;72.40;;;;;;5045280;28;20458;-69
2023/09/17 11:28:37;;;;;;;5.90;5.30;;;29.90;72.40;;;;;;5052921;28;20471;-67
2023/09/17 11:31:04;;;;;;;5.80;5.33;;;29.70;72.60;;;;;;5035447;28;20443;-68
2023/09/17 11:33:32;;;;;;;7.30;6.60;;;29.40;74.00;;;;;;5052797;28;20451;-68
2023/09/17 11:36:01;;;;;;;5.33;4.83;;;29.20;75.40;;;;;;5052715;28;20534;-68
2023/09/17 11:38:35;;;;;;;5.73;4.70;;;29.00;74.60;;;;;;5036729;28;20471;-68
2023/09/17 11:41:07;;;;;;;6.10;5.53;;;29.00;73.40;;;;;;5032721;28;20479;-69
2023/09/17 11:43:36;;;;;;;6.23;5.63;;;29.00;74.40;;;;;;5033002;28;20429;-68
2023/09/17 11:46:05;;;;;;;5.33;4.90;;;28.90;76.40;;;;;;5033051;28;20424;-68
2023/09/17 11:48:33;;;;;;;5.60;5.10;;;28.90;74.90;;;;;;5032934;28;20495;-68
2023/09/17 11:51:19;;;;;;;6.97;5.77;;;28.90;76.20;;;;;;5035253;28;20933;-68
2023/09/17 11:53:54;;;;;;;6.43;5.23;;;28.90;75.80;;;;;;5036354;28;20476;-68
2023/09/17 11:56:21;;;;;;;8.23;5.63;;;28.90;76.30;;;;;;5052633;28;20480;-69
2023/09/17 11:59:05;;;;;;;6.20;5.40;;;28.80;75.40;;;;;;5056734;28;20430;-67
2023/09/17 12:01:35;;;;;;;7.90;5.40;;;28.80;74.40;;;;;;5054906;28;20502;-68
2023/09/17 12:04:07;;;;;;;5.97;5.40;;;28.80;73.70;;;;;;5041696;28;20511;-68
2023/09/17 12:06:39;;;;;;;7.27;6.50;;;28.70;74.20;;;;;;5035893;28;20478;-68
2023/09/17 12:09:15;;;;;;;5.60;5.03;;;28.60;76.10;;;;;;5036070;28;20568;-68
2023/09/17 12:11:47;;;;;;;5.70;5.20;;;28.50;75.30;;;;;;5036375;28;20774;-68
2023/09/17 12:14:15;;;;;;;5.03;4.60;;;28.50;76.30;;;;;;5035679;28;20514;-68
2023/09/17 12:16:42;;;;;;;4.37;3.97;;;28.40;75.10;;;;;;5035245;28;20502;-68
2023/09/17 12:19:09;;;;;;;5.60;4.60;;;28.30;75.00;;;;;;5038094;28;20494;-68
2023/09/17 12:21:40;;;;;;;5.50;5.00;;;28.20;73.70;;;;;;5055734;28;20443;-68
2023/09/17 12:24:18;;;;;;;4.37;3.97;;;28.30;74.80;;;;;;5054192;28;20424;-68
2023/09/17 12:26:54;;;;;;;7.00;6.00;;;28.30;75.80;;;;;;5035560;28;20463;-68
2023/09/17 12:29:23;;;;;;;7.20;6.47;;;28.30;78.10;;;;;;5035852;28;20888;-68
2023/09/17 12:31:51;;;;;;;5.60;4.90;;;28.40;77.40;;;;;;5055804;28;20454;-68
2023/09/17 12:34:18;;;;;;;10.70;5.00;;;28.50;76.30;;;;;;5055777;28;20509;-68
2023/09/17 12:36:48;;;;;;;4.90;4.40;;;28.70;76.00;;;;;;5036166;28;20484;-68
2023/09/17 12:39:17;;;;;;;5.20;4.70;;;28.90;76.00;;;;;;5035626;28;20467;-68
2023/09/17 12:41:44;;;;;;;6.80;5.27;;;29.00;73.60;;;;;;5036134;28;20782;-68
2023/09/17 12:44:12;;;;;;;5.30;4.80;;;29.10;73.30;;;;;;5035553;28;20935;-68
2023/09/17 12:46:40;;;;;;;5.23;4.73;;;29.00;72.30;;;;;;5035701;28;20945;-67
2023/09/17 12:49:09;;;;;;;8.27;6.00;;;29.00;72.80;;;;;;5035484;28;20529;-67
2023/09/17 12:51:38;;;;;;;5.30;4.90;;;29.10;75.90;;;;;;5034601;28;20493;-67
2023/09/17 12:54:06;;;;;;;6.63;5.93;;;29.10;75.20;;;;;;5044413;28;20446;-67
2023/09/17 12:56:35;;;;;;;6.93;5.90;;;29.00;75.90;;;;;;5055174;28;20497;-68